El Mirador Airport


Codes: SCPV/PUX
Name: El Mirador Airport
City: Puerto Varas
Country: Chile
Elevation: 430 ft.

Photos at El Mirador Airport


   Photos courtesy of SpottingLog. You can add your own sightings and photos by signing up for a free trial today.



No photos found.

Weather at El Mirador Airport


Time (UTC)DescriptionTempratureWindCloud coverageVisibilityPressureHumidity
26-Jun-2024 00:00Light Rain6°C11 mph, N100%10000m1019hPa93%
26-Jun-2024 03:00Moderate Rain6°C13 mph, N100%4455m1019hPa94%
26-Jun-2024 06:00Heavy Intensity Rain6°C16 mph, NE100%3179m1017hPa95%
26-Jun-2024 09:00Heavy Intensity Rain9°C7 mph, N100%3511m1014hPa97%
26-Jun-2024 12:00Moderate Rain10°C7 mph, N100%10000m1015hPa96%
26-Jun-2024 15:00Moderate Rain10°C4 mph, NW100%7594m1016hPa96%
26-Jun-2024 18:00Moderate Rain10°C4 mph, N100%10000m1017hPa97%
26-Jun-2024 21:00Moderate Rain10°C7 mph, NW100%6510m1016hPa96%
27-Jun-2024 00:00Moderate Rain9°C4 mph, N100%8183m1016hPa98%
27-Jun-2024 03:00Moderate Rain9°C7 mph, N100%900m1013hPa98%
27-Jun-2024 06:00Moderate Rain9°C7 mph, N100%4082m1010hPa98%
27-Jun-2024 09:00Moderate Rain9°C2 mph, N100%0m1008hPa100%
27-Jun-2024 12:00Light Rain9°C9 mph, SW100%10000m1009hPa93%
27-Jun-2024 15:00Light Rain9°C11 mph, SW67%10000m1012hPa87%
27-Jun-2024 18:00Light Rain8°C9 mph, SW54%10000m1014hPa87%
27-Jun-2024 21:00Light Rain7°C9 mph, SW20%10000m1017hPa84%
28-Jun-2024 00:00Light Rain4°C4 mph, SW25%10000m1020hPa92%
28-Jun-2024 03:00Few Clouds4°C4 mph, SW21%10000m1022hPa93%
28-Jun-2024 06:00Scattered Clouds4°C4 mph, SW35%10000m1024hPa92%
28-Jun-2024 09:00Overcast Clouds5°C4 mph, SW100%10000m1026hPa91%
28-Jun-2024 12:00Overcast Clouds4°C4 mph, SW100%10000m1027hPa93%
28-Jun-2024 15:00Scattered Clouds6°C4 mph, SW38%10000m1028hPa87%
28-Jun-2024 18:00Light Rain8°C7 mph, S23%10000m1028hPa73%
28-Jun-2024 21:00Clear Sky6°C7 mph, S3%10000m1028hPa79%
29-Jun-2024 00:00Scattered Clouds3°C4 mph, S40%10000m1029hPa87%
29-Jun-2024 03:00Clear Sky2°C2 mph, S7%10000m1029hPa89%
29-Jun-2024 06:00Scattered Clouds2°C2 mph, E37%10000m1029hPa86%
29-Jun-2024 09:00Broken Clouds1°C2 mph, E56%10000m1028hPa79%
29-Jun-2024 12:00Scattered Clouds1°C2 mph, E43%10000m1028hPa75%
29-Jun-2024 15:00Overcast Clouds5°C2 mph, NE98%10000m1028hPa59%
29-Jun-2024 18:00Overcast Clouds6°C2 mph, SE99%10000m1026hPa58%
29-Jun-2024 21:00Overcast Clouds5°C2 mph, W99%10000m1024hPa70%
30-Jun-2024 00:00Broken Clouds2°C2 mph, SW72%10000m1025hPa77%
30-Jun-2024 03:00Scattered Clouds2°C0 mph, W41%10000m1025hPa81%
30-Jun-2024 06:00Scattered Clouds1°C2 mph, NW40%10000m1025hPa80%
30-Jun-2024 09:00Scattered Clouds1°C4 mph, N32%10000m1024hPa77%
30-Jun-2024 12:00Few Clouds1°C4 mph, N21%10000m1025hPa78%
30-Jun-2024 15:00Broken Clouds5°C7 mph, N65%10000m1025hPa64%
30-Jun-2024 18:00Broken Clouds8°C7 mph, NE83%10000m1023hPa59%
30-Jun-2024 21:00Overcast Clouds7°C7 mph, N100%10000m1022hPa67%